createdAt,value
2023-05-03T00:01:24.162Z,6.53
2023-05-03T00:03:57.009Z,3.17
2023-05-03T00:06:30.178Z,7.17
2023-05-03T00:09:03.490Z,5.80
2023-05-03T00:11:36.909Z,7.67
2023-05-03T00:14:09.893Z,4.37
2023-05-03T00:16:42.629Z,4.30
2023-05-03T00:19:28.376Z,6.47
2023-05-03T00:22:04.637Z,3.97
2023-05-03T00:24:37.964Z,5.27
2023-05-03T00:27:11.065Z,5.70
2023-05-03T00:29:44.104Z,5.23
2023-05-03T00:32:17.150Z,2.87
2023-05-03T00:34:57.324Z,4.90
2023-05-03T00:37:31.152Z,3.77
2023-05-03T00:40:05.287Z,3.40
2023-05-03T00:42:38.484Z,9.63
2023-05-03T00:45:11.607Z,5.40
2023-05-03T00:47:44.835Z,4.93
2023-05-03T00:50:18.157Z,5.70
2023-05-03T00:52:52.356Z,6.93
2023-05-03T00:55:31.071Z,6.03
2023-05-03T00:58:03.802Z,5.87
2023-05-03T01:00:37.766Z,7.73
2023-05-03T01:03:10.807Z,7.07
2023-05-03T01:05:56.582Z,5.53
2023-05-03T01:08:38.328Z,4.70
2023-05-03T01:11:25.754Z,4.50
2023-05-03T01:14:23.530Z,3.33
2023-05-03T01:17:01.072Z,3.90
2023-05-03T01:20:01.542Z,4.33
2023-05-03T01:22:46.582Z,5.53
2023-05-03T01:25:19.410Z,5.00
2023-05-03T01:27:52.284Z,4.63
2023-05-03T01:30:28.599Z,6.23
2023-05-03T01:33:29.096Z,5.00
2023-05-03T01:36:21.390Z,6.47
2023-05-03T01:38:54.538Z,6.63
2023-05-03T01:41:28.057Z,6.83
2023-05-03T01:44:03.757Z,7.17
2023-05-03T01:46:46.216Z,8.37
2023-05-03T01:49:19.050Z,8.60
2023-05-03T01:51:52.455Z,7.13
2023-05-03T01:54:25.358Z,4.23
2023-05-03T01:56:58.165Z,3.60
2023-05-03T01:59:30.994Z,6.00
2023-05-03T02:02:03.966Z,7.27
2023-05-03T02:04:36.970Z,4.37
2023-05-03T02:07:10.037Z,5.73
2023-05-03T02:09:42.934Z,7.07
2023-05-03T02:12:16.250Z,6.77
2023-05-03T02:14:49.217Z,6.10
2023-05-03T02:17:26.311Z,6.07
2023-05-03T02:19:59.183Z,6.07
2023-05-03T02:22:33.051Z,6.30
2023-05-03T02:25:07.594Z,6.77
2023-05-03T02:27:41.591Z,6.60
2023-05-03T02:30:14.745Z,4.73
2023-05-03T02:32:49.612Z,6.30
2023-05-03T02:35:24.445Z,8.43
2023-05-03T02:37:57.651Z,6.67
2023-05-03T02:40:30.682Z,6.00
2023-05-03T02:43:04.606Z,9.10
2023-05-03T02:45:37.965Z,6.67
2023-05-03T02:48:10.997Z,8.23
2023-05-03T02:50:43.987Z,8.37
2023-05-03T02:53:17.236Z,10.02
2023-05-03T02:55:51.229Z,7.17
2023-05-03T02:58:24.360Z,6.43
2023-05-03T03:00:57.215Z,8.57
2023-05-03T03:03:34.793Z,6.23
2023-05-03T03:06:08.366Z,4.60
2023-05-03T03:08:42.060Z,5.80
2023-05-03T03:11:14.920Z,7.67
2023-05-03T03:13:47.828Z,6.93
2023-05-03T03:16:21.105Z,6.63
2023-05-03T03:18:54.029Z,6.10
2023-05-03T03:21:29.229Z,5.57
2023-05-03T03:24:03.981Z,7.63
2023-05-03T03:26:36.915Z,6.73
2023-05-03T03:29:12.652Z,7.70
2023-05-03T03:31:49.432Z,8.20
2023-05-03T03:34:24.210Z,9.70
2023-05-03T03:36:57.274Z,6.20
2023-05-03T03:39:32.262Z,7.40
2023-05-03T03:42:05.708Z,6.37
2023-05-03T03:44:38.621Z,5.70
2023-05-03T03:47:13.439Z,6.73
2023-05-03T03:49:47.502Z,6.37
2023-05-03T03:52:20.561Z,5.27
2023-05-03T03:54:53.422Z,8.13
2023-05-03T03:57:30.106Z,10.00
2023-05-03T04:00:10.593Z,6.43
2023-05-03T04:02:47.572Z,7.00
2023-05-03T04:05:24.898Z,10.50
2023-05-03T04:07:58.062Z,10.60
2023-05-03T04:10:34.901Z,8.07
2023-05-03T04:13:08.735Z,9.57
2023-05-03T04:15:41.837Z,10.57
2023-05-03T04:18:14.843Z,5.37
2023-05-03T04:20:49.454Z,4.80
2023-05-03T04:23:23.760Z,5.37
2023-05-03T04:25:57.981Z,6.10
2023-05-03T04:28:33.052Z,6.90
2023-05-03T04:31:05.992Z,6.83
2023-05-03T04:33:41.701Z,5.50
2023-05-03T04:36:16.191Z,7.73
2023-05-03T04:38:52.473Z,5.90
2023-05-03T04:41:25.541Z,6.03
2023-05-03T04:43:59.987Z,9.10
2023-05-03T04:46:34.210Z,7.43
2023-05-03T04:49:07.017Z,6.70
2023-05-03T04:51:40.719Z,6.03
2023-05-03T04:54:14.018Z,6.83
2023-05-03T04:56:47.282Z,9.60
2023-05-03T04:59:23.760Z,7.03
2023-05-03T05:01:56.624Z,7.03
2023-05-03T05:04:31.029Z,10.53
2023-05-03T05:07:04.022Z,9.73
2023-05-03T05:09:38.813Z,7.03
2023-05-03T05:12:12.527Z,10.67
2023-05-03T05:14:48.745Z,9.47
2023-05-03T05:17:22.124Z,11.07
2023-05-03T05:19:56.218Z,10.00
2023-05-03T05:22:29.367Z,7.87
2023-05-03T05:25:07.687Z,9.50
2023-05-03T05:27:43.801Z,9.37
2023-05-03T05:30:17.005Z,7.53
2023-05-03T05:32:50.599Z,8.67
2023-05-03T05:35:23.815Z,6.27
2023-05-03T05:37:56.962Z,6.37
2023-05-03T05:40:30.374Z,6.23
2023-05-03T05:43:04.967Z,6.53
2023-05-03T05:45:40.978Z,8.57
2023-05-03T05:48:14.763Z,8.77
2023-05-03T05:50:49.158Z,8.10
2023-05-03T05:53:23.876Z,8.37
2023-05-03T05:56:03.219Z,7.43
2023-05-03T05:58:38.965Z,13.40
2023-05-03T06:01:12.702Z,10.30
2023-05-03T06:03:46.822Z,5.60
2023-05-03T06:06:21.269Z,4.80
2023-05-03T06:08:55.699Z,9.77
2023-05-03T06:11:30.072Z,5.13
2023-05-03T06:14:03.945Z,9.67
2023-05-03T06:16:38.018Z,4.93
2023-05-03T06:19:11.350Z,5.60
2023-05-03T06:21:44.038Z,6.83
2023-05-03T06:24:21.688Z,5.70
2023-05-03T06:26:58.832Z,9.60
2023-05-03T06:29:31.810Z,7.63
2023-05-03T06:32:04.920Z,8.20
2023-05-03T06:34:39.949Z,6.53
2023-05-03T06:37:14.237Z,7.57
2023-05-03T06:39:47.196Z,5.07
2023-05-03T06:42:20.599Z,9.20
2023-05-03T06:44:53.598Z,4.47
2023-05-03T06:47:26.361Z,4.93
2023-05-03T06:49:59.216Z,7.07
2023-05-03T06:52:32.382Z,5.93
2023-05-03T06:55:06.184Z,8.23
2023-05-03T06:57:41.164Z,5.30
2023-05-03T07:00:15.854Z,4.03
2023-05-03T07:02:49.016Z,6.95
2023-05-03T07:05:22.672Z,7.57
2023-05-03T07:07:55.605Z,7.70
2023-05-03T07:10:31.499Z,7.13
2023-05-03T07:13:04.511Z,6.97
2023-05-03T07:15:37.370Z,5.10
2023-05-03T07:18:11.184Z,5.23
2023-05-03T07:20:44.134Z,6.57
2023-05-03T07:23:17.433Z,4.93
2023-05-03T07:25:50.431Z,11.47
2023-05-03T07:28:24.992Z,5.47
2023-05-03T07:30:57.880Z,4.90
2023-05-03T07:33:33.797Z,5.60
2023-05-03T07:36:07.088Z,7.10
2023-05-03T07:38:40.202Z,7.47
2023-05-03T07:41:13.034Z,5.80
2023-05-03T07:43:49.067Z,6.33
2023-05-03T07:46:23.647Z,5.90
2023-05-03T07:48:58.449Z,5.97
2023-05-03T07:51:38.882Z,5.47
2023-05-03T07:54:24.755Z,7.83
2023-05-03T08:00:19.167Z,6.73
2023-05-03T08:02:52.002Z,7.07
2023-05-03T08:05:25.103Z,6.57
2023-05-03T08:07:58.101Z,5.87
2023-05-03T08:10:31.270Z,6.00
2023-05-03T08:13:07.563Z,8.73
2023-05-03T08:15:40.699Z,5.70
2023-05-03T08:18:13.495Z,7.87
2023-05-03T08:20:47.169Z,4.53
2023-05-03T08:23:21.778Z,5.17
2023-05-03T08:25:55.077Z,6.03
2023-05-03T08:28:28.315Z,5.50
2023-05-03T08:31:03.911Z,5.37
2023-05-03T08:33:38.397Z,5.03
2023-05-03T08:36:11.365Z,6.10
2023-05-03T08:38:44.268Z,5.03
2023-05-03T08:41:30.366Z,5.43
2023-05-03T08:44:05.736Z,7.20
2023-05-03T08:46:43.574Z,5.03
2023-05-03T08:49:18.800Z,4.53
2023-05-03T08:51:52.729Z,5.55
2023-05-03T08:54:26.758Z,5.63
2023-05-03T08:56:59.641Z,8.10
2023-05-03T08:59:32.557Z,5.27
2023-05-03T09:02:08.192Z,6.07
2023-05-03T09:04:41.321Z,6.47
2023-05-03T09:07:16.119Z,4.20
2023-05-03T09:09:48.916Z,8.77
2023-05-03T09:12:41.426Z,4.10
2023-05-03T09:15:22.380Z,6.57
2023-05-03T09:18:13.222Z,4.10
2023-05-03T09:20:53.765Z,6.03
2023-05-03T09:23:26.780Z,8.50
2023-05-03T09:26:00.480Z,4.40
2023-05-03T09:28:42.618Z,5.97
2023-05-03T09:31:15.702Z,7.40
2023-05-03T09:33:48.622Z,6.53
2023-05-03T09:36:21.941Z,4.97
2023-05-03T09:38:56.162Z,5.97
2023-05-03T09:41:30.548Z,5.40
2023-05-03T09:44:03.334Z,5.17
2023-05-03T09:46:37.364Z,4.50
2023-05-03T09:49:10.296Z,4.93
2023-05-03T09:51:43.695Z,5.97
2023-05-03T09:54:16.952Z,4.65
2023-05-03T09:56:50.987Z,9.93
2023-05-03T09:59:24.539Z,5.35
2023-05-03T10:01:59.873Z,5.68
2023-05-03T10:04:41.101Z,7.50
2023-05-03T10:07:17.580Z,8.10
2023-05-03T10:09:51.059Z,3.80
2023-05-03T10:12:25.550Z,4.60
2023-05-03T10:15:06.544Z,5.68
2023-05-03T10:17:46.903Z,5.45
2023-05-03T10:20:40.211Z,5.57
2023-05-03T10:23:14.196Z,4.82
2023-05-03T10:26:06.647Z,4.03
2023-05-03T10:28:39.443Z,6.35
2023-05-03T10:31:44.669Z,4.05
2023-05-03T10:34:25.114Z,3.10
2023-05-03T10:37:11.004Z,5.60
2023-05-03T10:39:46.808Z,6.25
2023-05-03T10:42:23.291Z,6.93
2023-05-03T10:44:56.077Z,7.70
2023-05-03T10:47:29.376Z,6.28
2023-05-03T10:50:14.587Z,4.20
2023-05-03T10:52:48.953Z,5.20
2023-05-03T10:55:25.085Z,6.18
2023-05-03T10:57:59.352Z,5.18
2023-05-03T11:00:39.123Z,6.53
2023-05-03T11:03:27.142Z,3.70
2023-05-03T11:06:00.230Z,4.00
2023-05-03T11:08:37.832Z,5.15
2023-05-03T11:11:11.228Z,4.93
2023-05-03T11:13:43.984Z,5.68
2023-05-03T11:16:17.073Z,5.63
2023-05-03T11:18:51.393Z,3.58
2023-05-03T11:21:25.074Z,3.85
2023-05-03T11:23:59.368Z,4.20
2023-05-03T11:26:36.673Z,3.67
2023-05-03T11:29:14.157Z,3.75
2023-05-03T11:31:47.004Z,3.47
2023-05-03T11:34:20.049Z,3.67
2023-05-03T11:36:52.802Z,4.82
2023-05-03T11:39:25.943Z,4.03
2023-05-03T11:42:05.907Z,4.18
2023-05-03T11:44:38.932Z,5.00
2023-05-03T11:47:12.396Z,4.78
2023-05-03T11:49:55.858Z,6.00
2023-05-03T11:52:28.838Z,3.40
2023-05-03T11:55:02.826Z,3.75
2023-05-03T11:57:37.550Z,2.92
2023-05-03T12:00:17.027Z,2.90
2023-05-03T12:02:50.204Z,4.07
2023-05-03T12:05:23.603Z,3.55
2023-05-03T12:07:58.354Z,8.25
2023-05-03T12:10:33.348Z,3.72
2023-05-03T12:13:09.043Z,3.10
2023-05-03T12:18:19.674Z,4.28
2023-05-03T12:23:36.172Z,5.03
2023-05-03T12:26:10.124Z,2.47
2023-05-03T12:28:43.297Z,5.07
2023-05-03T12:31:18.211Z,4.45
2023-05-03T12:36:31.235Z,3.67
2023-05-03T12:39:09.345Z,3.55
2023-05-03T12:42:06.245Z,4.40
2023-05-03T12:44:42.739Z,4.05
2023-05-03T12:47:23.835Z,5.57
2023-05-03T12:50:05.782Z,3.00
2023-05-03T12:52:39.796Z,4.63
2023-05-03T12:55:17.695Z,4.43
2023-05-03T12:58:10.355Z,5.60
2023-05-03T13:01:07.126Z,3.78
2023-05-03T13:03:43.530Z,3.00
2023-05-03T13:06:17.659Z,2.30
2023-05-03T13:08:51.395Z,3.30
2023-05-03T13:11:25.385Z,5.55
2023-05-03T13:13:58.298Z,3.92
2023-05-03T13:16:32.356Z,3.65
2023-05-03T13:19:05.386Z,2.88
2023-05-03T13:21:38.098Z,2.75
2023-05-03T13:24:10.991Z,3.55
2023-05-03T13:26:43.670Z,2.25
2023-05-03T13:29:16.630Z,7.72
2023-05-03T13:31:49.794Z,3.95
2023-05-03T13:34:22.707Z,5.97
2023-05-03T13:36:56.076Z,3.05
2023-05-03T13:39:29.042Z,2.78
2023-05-03T13:42:02.243Z,4.65
2023-05-03T13:44:35.156Z,2.25
2023-05-03T13:47:08.160Z,4.00
2023-05-03T13:49:41.266Z,3.47
2023-05-03T13:52:14.803Z,2.13
2023-05-03T13:54:47.483Z,3.40
2023-05-03T13:57:20.399Z,2.63
2023-05-03T13:59:53.215Z,2.63
2023-05-03T14:02:26.738Z,2.30
2023-05-03T14:04:59.661Z,3.55
2023-05-03T14:07:32.776Z,3.50
2023-05-03T14:10:07.031Z,3.50
2023-05-03T14:12:40.483Z,3.70
2023-05-03T14:15:13.622Z,3.05
2023-05-03T14:17:49.863Z,2.20
2023-05-03T14:20:23.165Z,4.70
2023-05-03T14:22:56.436Z,2.97
2023-05-03T14:25:30.059Z,3.92
2023-05-03T14:28:03.145Z,2.35
2023-05-03T14:30:36.420Z,1.55
2023-05-03T14:33:10.824Z,2.08
2023-05-03T14:35:44.681Z,1.85
2023-05-03T14:38:17.592Z,2.83
2023-05-03T14:40:53.377Z,3.33
2023-05-03T14:43:26.423Z,3.67
2023-05-03T14:45:59.159Z,4.15
2023-05-03T14:48:32.049Z,5.75
2023-05-03T14:51:05.229Z,5.55
2023-05-03T14:53:37.966Z,1.35
2023-05-03T14:56:11.046Z,1.67
2023-05-03T14:58:43.831Z,3.55
2023-05-03T15:01:18.400Z,4.07
2023-05-03T15:03:52.372Z,3.15
2023-05-03T15:06:28.820Z,3.80
2023-05-03T15:09:02.112Z,2.45
2023-05-03T15:11:34.842Z,3.28
2023-05-03T15:14:09.148Z,4.28
2023-05-03T15:16:42.134Z,2.95
2023-05-03T15:19:15.165Z,3.58
2023-05-03T15:21:50.108Z,2.58
2023-05-03T15:24:22.974Z,3.08
2023-05-03T15:26:56.543Z,2.23
2023-05-03T15:29:29.718Z,1.80
2023-05-03T15:32:03.571Z,2.30
2023-05-03T15:34:37.475Z,1.40
2023-05-03T15:37:12.172Z,2.53
2023-05-03T15:39:45.261Z,2.10
2023-05-03T15:42:18.210Z,2.70
2023-05-03T15:44:51.502Z,3.97
2023-05-03T15:47:27.106Z,1.73
2023-05-03T15:50:00.155Z,1.30
2023-05-03T15:52:33.255Z,2.25
2023-05-03T15:55:06.934Z,1.90
2023-05-03T15:57:40.078Z,2.60
2023-05-03T16:00:15.931Z,3.08
2023-05-03T16:02:48.742Z,2.85
2023-05-03T16:05:22.436Z,3.00
2023-05-03T16:07:55.462Z,1.50
2023-05-03T16:10:28.661Z,3.15
2023-05-03T16:13:01.927Z,2.67
2023-05-03T16:15:35.350Z,3.35
2023-05-03T16:18:08.419Z,2.60
2023-05-03T16:20:41.168Z,2.58
2023-05-03T16:23:14.016Z,2.22
2023-05-03T16:25:47.424Z,2.80
2023-05-03T16:28:20.492Z,4.85
2023-05-03T16:30:53.198Z,1.75
2023-05-03T16:33:26.097Z,6.03
2023-05-03T16:35:58.816Z,2.83
2023-05-03T16:38:32.176Z,2.50
2023-05-03T16:41:05.148Z,2.90
2023-05-03T16:43:38.530Z,2.42
2023-05-03T16:46:11.340Z,1.60
2023-05-03T16:48:44.475Z,4.60
2023-05-03T16:51:21.152Z,3.05
2023-05-03T16:53:55.408Z,2.13
2023-05-03T16:56:30.746Z,2.70
2023-05-03T16:59:04.120Z,1.85
2023-05-03T17:01:37.131Z,2.25
2023-05-03T17:04:09.862Z,3.10
2023-05-03T17:06:42.856Z,1.63
2023-05-03T17:09:16.903Z,1.30
2023-05-03T17:11:49.953Z,2.30
2023-05-03T17:14:23.087Z,5.90
2023-05-03T17:16:55.900Z,1.58
2023-05-03T17:19:29.479Z,2.70
2023-05-03T17:22:02.334Z,1.90
2023-05-03T17:24:35.055Z,2.33
2023-05-03T17:27:08.753Z,2.47
2023-05-03T17:29:41.704Z,2.05
2023-05-03T17:32:14.811Z,1.42
2023-05-03T17:34:47.820Z,1.52
2023-05-03T17:37:23.395Z,8.82
2023-05-03T17:39:56.260Z,3.25
2023-05-03T17:42:29.024Z,4.35
2023-05-03T17:45:02.675Z,3.50
2023-05-03T17:47:35.649Z,2.40
2023-05-03T17:50:08.980Z,1.70
2023-05-03T17:52:41.894Z,1.48
2023-05-03T17:55:15.635Z,2.35
2023-05-03T17:57:49.558Z,0.90
2023-05-03T18:00:22.865Z,2.25
2023-05-03T18:02:56.450Z,2.45
2023-05-03T18:05:35.355Z,3.22
2023-05-03T18:08:08.188Z,1.75
2023-05-03T18:10:43.934Z,1.27
2023-05-03T18:13:16.887Z,1.75
2023-05-03T18:15:50.092Z,1.45
2023-05-03T18:18:22.879Z,1.33
2023-05-03T18:21:03.655Z,2.47
2023-05-03T18:23:36.527Z,1.17
2023-05-03T18:26:09.846Z,1.63
2023-05-03T18:31:16.031Z,1.83
2023-05-03T18:33:48.899Z,2.20
2023-05-03T18:36:23.509Z,1.58
2023-05-03T18:38:56.329Z,2.87
2023-05-03T18:41:29.558Z,1.23
2023-05-03T18:44:03.893Z,4.00
2023-05-03T18:46:38.081Z,3.27
2023-05-03T18:49:12.044Z,1.77
2023-05-03T18:51:45.776Z,1.87
2023-05-03T18:54:20.408Z,4.30
2023-05-03T18:56:53.355Z,1.93
2023-05-03T18:59:26.493Z,2.08
2023-05-03T19:01:59.405Z,1.57
2023-05-03T19:04:32.267Z,3.83
2023-05-03T19:07:05.395Z,2.93
2023-05-03T19:09:40.419Z,2.73
2023-05-03T19:12:13.634Z,1.60
2023-05-03T19:14:46.980Z,1.70
2023-05-03T19:17:19.822Z,1.40
2023-05-03T19:19:52.586Z,1.53
2023-05-03T19:22:25.744Z,1.50
2023-05-03T19:24:58.770Z,1.83
2023-05-03T19:27:32.071Z,2.43
2023-05-03T19:30:05.768Z,3.87
2023-05-03T19:32:39.566Z,3.53
2023-05-03T19:35:12.441Z,2.20
2023-05-03T19:37:45.516Z,5.13
2023-05-03T19:40:18.460Z,2.87
2023-05-03T19:42:52.645Z,1.60
2023-05-03T19:45:25.781Z,2.57
2023-05-03T19:47:58.643Z,14.10
2023-05-03T19:50:31.437Z,2.63
2023-05-03T19:53:04.346Z,1.63
2023-05-03T19:55:37.423Z,2.00
2023-05-03T19:58:13.655Z,2.23
2023-05-03T20:00:46.391Z,1.50
2023-05-03T20:03:20.958Z,1.40
2023-05-03T20:05:54.180Z,1.20
2023-05-03T20:08:27.204Z,1.27
2023-05-03T20:11:00.077Z,4.50
2023-05-03T20:13:33.775Z,1.77
2023-05-03T20:16:08.437Z,1.90
2023-05-03T20:18:43.204Z,4.40
2023-05-03T20:21:16.366Z,2.87
2023-05-03T20:23:50.111Z,1.90
2023-05-03T20:26:22.976Z,1.67
2023-05-03T20:28:55.716Z,3.13
2023-05-03T20:31:28.749Z,1.70
2023-05-03T20:34:01.960Z,2.27
2023-05-03T20:36:34.912Z,2.10
2023-05-03T20:39:09.602Z,1.20
2023-05-03T20:41:42.603Z,2.80
2023-05-03T20:44:15.333Z,2.73
2023-05-03T20:46:48.654Z,3.07
2023-05-03T20:49:21.427Z,2.20
2023-05-03T20:51:54.437Z,2.23
2023-05-03T20:54:27.366Z,2.73
2023-05-03T20:57:00.658Z,2.23
2023-05-03T20:59:35.668Z,2.83
2023-05-03T21:02:08.744Z,1.70
2023-05-03T21:04:41.993Z,1.67
2023-05-03T21:07:14.965Z,2.07
2023-05-03T21:09:48.105Z,1.73
2023-05-03T21:12:21.057Z,3.83
2023-05-03T21:14:53.913Z,1.60
2023-05-03T21:17:27.079Z,1.90
2023-05-03T21:20:01.356Z,2.17
2023-05-03T21:22:34.228Z,3.37
2023-05-03T21:25:07.615Z,2.53
2023-05-03T21:27:40.538Z,1.83
2023-05-03T21:30:14.063Z,2.37
2023-05-03T21:32:49.973Z,2.23
2023-05-03T21:35:25.207Z,2.33
2023-05-03T21:37:58.393Z,1.37
2023-05-03T21:40:31.202Z,4.50
2023-05-03T21:43:05.836Z,2.70
2023-05-03T21:45:43.046Z,3.30
2023-05-03T21:48:16.014Z,3.03
2023-05-03T21:50:48.715Z,2.40
2023-05-03T21:53:22.158Z,2.20
2023-05-03T21:55:54.928Z,2.00
2023-05-03T21:58:27.726Z,2.97
2023-05-03T22:01:00.521Z,2.00
2023-05-03T22:03:34.341Z,2.90
2023-05-03T22:06:08.854Z,4.03
2023-05-03T22:08:41.867Z,3.00
2023-05-03T22:11:14.866Z,1.60
2023-05-03T22:14:05.811Z,2.83
2023-05-03T22:16:42.066Z,2.63
2023-05-03T22:19:15.039Z,4.23
2023-05-03T22:21:47.818Z,2.30
2023-05-03T22:24:20.682Z,2.73
2023-05-03T22:26:53.372Z,2.77
2023-05-03T22:29:26.910Z,2.60
2023-05-03T22:31:59.730Z,2.23
2023-05-03T22:34:32.729Z,2.53
2023-05-03T22:37:08.787Z,3.40
2023-05-03T22:39:41.598Z,1.93
2023-05-03T22:42:14.579Z,3.63
2023-05-03T22:44:47.252Z,2.93
2023-05-03T22:47:21.071Z,1.70
2023-05-03T22:49:54.035Z,3.40
2023-05-03T22:52:26.720Z,3.47
2023-05-03T22:55:00.879Z,1.90
2023-05-03T22:57:34.322Z,1.97
2023-05-03T23:00:10.306Z,2.50
2023-05-03T23:02:43.287Z,2.23
2023-05-03T23:05:16.292Z,2.47
2023-05-03T23:07:49.120Z,3.20
2023-05-03T23:10:22.007Z,3.50
2023-05-03T23:12:55.307Z,2.07
2023-05-03T23:15:29.757Z,2.10
2023-05-03T23:18:03.143Z,2.40
2023-05-03T23:20:35.971Z,2.67
2023-05-03T23:23:08.909Z,3.50
2023-05-03T23:25:42.185Z,3.50
2023-05-03T23:28:15.229Z,2.50
2023-05-03T23:30:48.513Z,1.77
2023-05-03T23:33:22.063Z,3.27
2023-05-03T23:35:55.567Z,2.30
2023-05-03T23:38:28.449Z,4.17
2023-05-03T23:41:01.596Z,1.50
2023-05-03T23:43:34.456Z,2.60
2023-05-03T23:46:07.805Z,2.33
2023-05-03T23:48:40.699Z,2.07
2023-05-03T23:51:13.664Z,2.60
2023-05-03T23:53:46.601Z,2.40
2023-05-03T23:56:19.628Z,1.40
2023-05-03T23:58:52.767Z,4.03
